Time;durP1;ratioP1;P1;durP2;ratioP2;P2;SDS_P1;SDS_P2;PMS_P1;PMS_P2;Temp;Humidity;BMP_temperature;BMP_pressure;BME280_temperature;BME280_humidity;BME280_pressure;Samples;Min_cycle;Max_cycle;Signal;HPM_P1;HPM_P2
2023/04/01 00:00:01;;;;;;;32.80;9.63;;;10.00;99.90;;;;;;5072041;28;20209;-84
2023/04/01 00:02:27;;;;;;;24.93;7.50;;;10.00;99.90;;;;;;5073034;28;20426;-87
2023/04/01 00:04:54;;;;;;;42.57;10.20;;;10.00;99.90;;;;;;5055809;28;20203;-86
2023/04/01 00:07:22;;;;;;;28.43;10.40;;;10.00;99.90;;;;;;5072379;28;20649;-85
2023/04/01 00:09:50;;;;;;;34.80;10.60;;;10.00;99.90;;;;;;5072236;28;20556;-85
2023/04/01 00:12:17;;;;;;;26.13;8.73;;;10.00;99.90;;;;;;5072471;28;20280;-85
2023/04/01 00:14:44;;;;;;;17.67;6.50;;;10.00;99.90;;;;;;5071723;28;20268;-80
2023/04/01 00:17:11;;;;;;;20.03;6.70;;;10.00;99.90;;;;;;5072277;28;20595;-82
2023/04/01 00:19:38;;;;;;;18.03;6.07;;;10.00;99.90;;;;;;5071660;28;20205;-84
2023/04/01 00:22:06;;;;;;;20.50;8.00;;;10.00;99.90;;;;;;5074428;28;20252;-81
2023/04/01 00:24:32;;;;;;;27.50;8.70;;;10.00;99.90;;;;;;5078999;28;20208;-84
2023/04/01 00:27:01;;;;;;;33.87;10.83;;;10.00;99.90;;;;;;5096312;28;20196;-86
2023/04/01 00:29:30;;;;;;;41.53;11.43;;;10.00;99.90;;;;;;5095703;28;20601;-84
2023/04/01 00:31:57;;;;;;;31.77;10.60;;;10.00;99.90;;;;;;5097157;28;20593;-82
2023/04/01 00:34:25;;;;;;;38.03;11.63;;;10.00;99.90;;;;;;5095753;28;20551;-83
2023/04/01 00:36:53;;;;;;;37.90;12.60;;;10.00;99.90;;;;;;5096836;28;20192;-83
2023/04/01 00:39:21;;;;;;;31.57;12.13;;;10.00;99.90;;;;;;5097036;28;20192;-83
2023/04/01 00:41:49;;;;;;;40.03;11.80;;;10.10;99.90;;;;;;5089236;28;20217;-82
2023/04/01 00:44:20;;;;;;;36.47;10.97;;;10.10;99.90;;;;;;5076271;28;20205;-84
2023/04/01 00:46:47;;;;;;;35.03;10.70;;;10.10;99.90;;;;;;5076674;28;20239;-85
2023/04/01 00:49:16;;;;;;;28.53;10.33;;;10.10;99.90;;;;;;5075806;28;20248;-84
2023/04/01 00:51:43;;;;;;;31.60;10.57;;;10.00;99.90;;;;;;5076563;28;20276;-84
2023/04/01 00:54:12;;;;;;;43.13;11.80;;;10.00;99.90;;;;;;5076870;28;20505;-85
2023/04/01 00:56:43;;;;;;;40.57;12.00;;;10.10;99.90;;;;;;5076129;28;20651;-83
2023/04/01 00:59:16;;;;;;;30.13;9.80;;;10.10;99.90;;;;;;5076076;28;20198;-83
2023/04/01 01:01:44;;;;;;;34.30;11.20;;;10.10;99.90;;;;;;5076250;28;20885;-85
2023/04/01 01:04:28;;;;;;;33.27;10.50;;;10.10;99.90;;;;;;5076157;28;20296;-83
2023/04/01 01:07:11;;;;;;;33.40;9.40;;;10.10;99.90;;;;;;5076236;28;20325;-84
2023/04/01 01:09:48;;;;;;;27.90;8.17;;;10.10;99.90;;;;;;5075664;28;20233;-84
2023/04/01 01:12:19;;;;;;;21.90;8.77;;;10.10;99.90;;;;;;5082115;28;20192;-85
2023/04/01 01:15:07;;;;;;;25.40;7.37;;;10.10;99.90;;;;;;5079036;28;20244;-85
2023/04/01 01:17:44;;;;;;;21.70;6.80;;;10.10;99.90;;;;;;5096010;28;20280;-83
2023/04/01 01:20:49;;;;;;;17.53;5.93;;;10.20;99.90;;;;;;5094062;28;20257;-83
2023/04/01 01:23:58;;;;;;;10.43;5.20;;;10.20;99.90;;;;;;5075399;28;20632;-83
2023/04/01 01:26:44;;;;;;;10.77;4.27;;;10.10;99.90;;;;;;5075899;28;20848;-83
2023/04/01 01:29:43;;;;;;;7.07;3.63;;;10.10;99.90;;;;;;5075727;28;20185;-83
2023/04/01 01:32:24;;;;;;;8.13;3.73;;;10.10;99.90;;;;;;5074483;28;20497;-82
2023/04/01 01:34:58;;;;;;;7.87;3.03;;;10.10;99.90;;;;;;5074962;28;20192;-83
2023/04/01 01:37:29;;;;;;;6.07;3.33;;;10.10;99.90;;;;;;5073924;28;20288;-82
2023/04/01 01:40:00;;;;;;;6.00;3.27;;;10.10;99.90;;;;;;5074978;28;20197;-82
2023/04/01 01:42:31;;;;;;;6.40;3.83;;;10.10;99.90;;;;;;5075008;28;20245;-82
2023/04/01 01:44:59;;;;;;;7.67;3.77;;;10.10;99.90;;;;;;5074399;28;20205;-86
2023/04/01 01:47:27;;;;;;;8.77;4.83;;;10.10;99.90;;;;;;5075396;28;20201;-83
2023/04/01 01:49:56;;;;;;;10.00;5.73;;;10.20;99.90;;;;;;5075364;28;20650;-83
2023/04/01 01:52:24;;;;;;;8.73;5.80;;;10.20;99.90;;;;;;5074221;28;20500;-83
2023/04/01 01:54:53;;;;;;;11.67;6.40;;;10.20;99.90;;;;;;5093620;28;20596;-85
2023/04/01 01:57:24;;;;;;;16.43;7.37;;;10.30;99.90;;;;;;5095347;28;20200;-83
2023/04/01 01:59:55;;;;;;;14.27;7.43;;;10.30;99.90;;;;;;5095138;28;20625;-85
2023/04/01 02:02:23;;;;;;;11.80;7.30;;;10.40;99.90;;;;;;5095230;28;20201;-82
2023/04/01 02:04:51;;;;;;;12.57;7.53;;;10.40;99.90;;;;;;5074882;28;20338;-83
2023/04/01 02:07:24;;;;;;;9.53;6.00;;;10.40;99.90;;;;;;5072873;28;20256;-84
2023/04/01 02:09:53;;;;;;;9.93;6.43;;;10.50;99.90;;;;;;5073798;28;20236;-85
2023/04/01 02:12:22;;;;;;;8.87;6.40;;;10.50;99.90;;;;;;5073535;28;20295;-83
2023/04/01 02:14:53;;;;;;;8.07;5.57;;;10.50;99.90;;;;;;5074464;28;20279;-83
2023/04/01 02:17:24;;;;;;;8.87;6.30;;;10.50;99.90;;;;;;5081134;28;20295;-81
2023/04/01 02:19:54;;;;;;;7.77;6.57;;;10.50;99.90;;;;;;5094892;28;20225;-83
2023/04/01 02:22:25;;;;;;;8.47;6.80;;;10.50;99.90;;;;;;5093108;28;20267;-82
2023/04/01 02:24:58;;;;;;;9.10;6.40;;;10.50;99.90;;;;;;5075278;28;20232;-83
2023/04/01 02:27:25;;;;;;;8.60;6.83;;;10.50;99.90;;;;;;5074454;28;20303;-86
2023/04/01 02:29:53;;;;;;;11.20;7.13;;;10.60;99.90;;;;;;5074921;28;20223;-84
2023/04/01 02:32:21;;;;;;;9.87;7.40;;;10.60;99.90;;;;;;5074530;28;20744;-83
2023/04/01 02:34:49;;;;;;;10.60;7.33;;;10.60;99.90;;;;;;5074695;28;20292;-84
2023/04/01 02:37:17;;;;;;;10.83;8.53;;;10.60;99.90;;;;;;5075011;28;20206;-82
2023/04/01 02:39:44;;;;;;;9.27;7.30;;;10.60;99.90;;;;;;5074844;28;20197;-82
2023/04/01 02:42:12;;;;;;;11.47;8.50;;;10.60;99.90;;;;;;5074107;28;20857;-81
2023/04/01 02:44:39;;;;;;;11.87;8.67;;;10.60;99.90;;;;;;5082571;28;20201;-81
2023/04/01 02:47:06;;;;;;;10.63;8.17;;;10.60;99.90;;;;;;5074502;28;20487;-85
2023/04/01 02:49:33;;;;;;;11.33;8.20;;;10.50;99.90;;;;;;5073606;28;20276;-82
2023/04/01 02:52:00;;;;;;;10.60;8.43;;;10.50;99.90;;;;;;5074198;28;20594;-83
2023/04/01 02:54:27;;;;;;;11.70;9.03;;;10.50;99.90;;;;;;5073723;28;20240;-82
2023/04/01 02:56:54;;;;;;;13.53;10.33;;;10.50;99.90;;;;;;5074309;28;20565;-82
2023/04/01 02:59:22;;;;;;;16.17;11.17;;;10.50;99.90;;;;;;5073921;28;20474;-82
2023/04/01 03:01:49;;;;;;;18.13;11.67;;;10.50;99.90;;;;;;5073454;28;20548;-84
2023/04/01 03:04:16;;;;;;;14.23;11.17;;;10.50;99.90;;;;;;5074272;28;20231;-85
2023/04/01 03:06:43;;;;;;;16.70;10.87;;;10.40;99.90;;;;;;5090268;28;20258;-84
2023/04/01 03:09:10;;;;;;;17.40;11.00;;;10.50;99.90;;;;;;5094155;28;20581;-83
2023/04/01 03:11:37;;;;;;;19.10;12.57;;;10.50;99.90;;;;;;5094132;28;20254;-82
2023/04/01 03:14:04;;;;;;;21.57;13.00;;;10.50;99.90;;;;;;5085019;28;20197;-83
2023/04/01 03:16:32;;;;;;;17.77;12.53;;;10.40;99.90;;;;;;5073490;28;20601;-83
2023/04/01 03:19:01;;;;;;;20.10;13.23;;;10.50;99.90;;;;;;5074072;28;20281;-84
2023/04/01 03:21:29;;;;;;;19.77;13.60;;;10.40;99.90;;;;;;5074224;28;20201;-84
2023/04/01 03:23:55;;;;;;;19.57;12.93;;;10.40;99.90;;;;;;5072374;28;20225;-85
2023/04/01 03:26:22;;;;;;;18.73;12.73;;;10.40;99.90;;;;;;5072784;28;20283;-83
2023/04/01 03:28:49;;;;;;;19.70;12.40;;;10.30;99.90;;;;;;5072701;28;20862;-83
2023/04/01 03:31:16;;;;;;;16.43;10.77;;;10.30;99.90;;;;;;5072986;28;20285;-83
2023/04/01 03:33:45;;;;;;;17.40;10.93;;;10.30;99.90;;;;;;5055138;28;20200;-82
2023/04/01 03:36:12;;;;;;;20.67;11.83;;;10.30;99.90;;;;;;5073253;28;20225;-84
2023/04/01 03:38:40;;;;;;;25.73;12.70;;;10.30;99.90;;;;;;5080916;28;20563;-82
2023/04/01 03:41:07;;;;;;;27.20;12.70;;;10.20;99.90;;;;;;5092269;28;20228;-82
2023/04/01 03:43:34;;;;;;;22.10;13.63;;;10.20;99.90;;;;;;5092888;28;20252;-82
2023/04/01 03:46:01;;;;;;;22.40;12.27;;;10.20;99.90;;;;;;5093287;28;20239;-81
2023/04/01 03:48:28;;;;;;;21.20;12.50;;;10.20;99.90;;;;;;5093500;28;20646;-82
2023/04/01 03:50:56;;;;;;;25.13;13.00;;;10.20;99.90;;;;;;5093129;28;20648;-84
2023/04/01 03:53:23;;;;;;;23.23;12.77;;;10.20;99.90;;;;;;5080089;28;20209;-82
2023/04/01 03:55:51;;;;;;;27.20;13.40;;;10.20;99.90;;;;;;5073358;28;20319;-84
2023/04/01 03:58:18;;;;;;;23.27;13.53;;;10.20;99.90;;;;;;5072155;28;20210;-84
2023/04/01 04:00:45;;;;;;;19.50;12.13;;;10.20;99.90;;;;;;5073126;28;20528;-83
2023/04/01 04:03:12;;;;;;;31.20;12.87;;;10.20;99.90;;;;;;5073126;28;20303;-84
2023/04/01 04:05:46;;;;;;;24.83;12.10;;;10.10;99.90;;;;;;5072798;28;20233;-81
2023/04/01 04:08:14;;;;;;;27.67;13.37;;;10.10;99.90;;;;;;5073301;28;20322;-83
2023/04/01 04:10:41;;;;;;;21.67;12.60;;;10.10;99.90;;;;;;5072862;28;20288;-82
2023/04/01 04:13:08;;;;;;;24.90;11.37;;;10.10;99.90;;;;;;5072514;28;20212;-82
2023/04/01 04:15:35;;;;;;;21.37;10.33;;;10.10;99.90;;;;;;5072867;28;20240;-83
2023/04/01 04:18:02;;;;;;;20.33;11.10;;;10.00;99.90;;;;;;5083045;28;20639;-82
2023/04/01 04:20:29;;;;;;;24.03;11.37;;;10.10;99.90;;;;;;5091135;28;20668;-84
2023/04/01 04:22:56;;;;;;;20.70;12.00;;;10.10;99.90;;;;;;5072272;28;20209;-82
2023/04/01 04:25:24;;;;;;;20.87;11.57;;;10.10;99.90;;;;;;5072647;28;20232;-83
2023/04/01 04:27:51;;;;;;;18.27;10.50;;;10.10;99.90;;;;;;5072343;28;20541;-83
2023/04/01 04:30:18;;;;;;;25.17;11.20;;;10.10;99.90;;;;;;5072897;28;20201;-80
2023/04/01 04:32:45;;;;;;;27.47;11.30;;;10.10;99.90;;;;;;5072323;28;20204;-83
2023/04/01 04:35:12;;;;;;;26.47;10.80;;;10.10;99.90;;;;;;5072573;28;20223;-83
2023/04/01 04:37:39;;;;;;;22.00;10.53;;;10.10;99.90;;;;;;5072671;28;20273;-84
2023/04/01 04:40:07;;;;;;;25.93;9.63;;;10.00;99.90;;;;;;5072649;28;20272;-84
2023/04/01 04:42:35;;;;;;;22.00;11.13;;;10.00;99.90;;;;;;5072389;28;20709;-81
2023/04/01 04:45:02;;;;;;;22.13;10.93;;;10.00;99.90;;;;;;5072688;28;20551;-84
2023/04/01 04:47:29;;;;;;;20.80;10.33;;;10.00;99.90;;;;;;5072072;28;20247;-86
2023/04/01 04:49:56;;;;;;;20.77;11.30;;;10.00;99.90;;;;;;5072662;28;20225;-82
2023/04/01 04:52:23;;;;;;;27.13;11.57;;;10.00;99.90;;;;;;5072859;28;20197;-84
2023/04/01 04:54:50;;;;;;;24.53;12.90;;;9.90;99.90;;;;;;5085588;28;20304;-82
2023/04/01 04:57:17;;;;;;;24.00;11.93;;;9.90;99.90;;;;;;5087857;28;20292;-84
2023/04/01 04:59:45;;;;;;;26.23;11.93;;;9.90;99.90;;;;;;5072550;28;20225;-84
2023/04/01 05:02:12;;;;;;;23.13;11.30;;;9.90;99.90;;;;;;5072070;28;20664;-83
2023/04/01 05:04:39;;;;;;;20.57;11.20;;;9.90;99.90;;;;;;5072697;28;20336;-84
2023/04/01 05:07:06;;;;;;;31.30;11.30;;;9.90;99.90;;;;;;5072461;28;20554;-83
2023/04/01 05:09:33;;;;;;;27.20;11.33;;;9.90;99.90;;;;;;5075917;28;20288;-83
2023/04/01 05:12:00;;;;;;;24.50;10.70;;;9.90;99.90;;;;;;5076488;28;20213;-82
2023/04/01 05:14:27;;;;;;;23.43;11.10;;;9.90;99.90;;;;;;5076194;28;20213;-83
2023/04/01 05:16:55;;;;;;;25.33;11.27;;;9.90;99.90;;;;;;5076450;28;20225;-82
2023/04/01 05:19:22;;;;;;;21.57;10.47;;;9.90;99.90;;;;;;5075729;28;20217;-82
2023/04/01 05:21:49;;;;;;;26.20;11.60;;;9.80;99.90;;;;;;5075794;28;20213;-83
2023/04/01 05:24:17;;;;;;;29.80;12.80;;;9.80;99.90;;;;;;5075031;28;20252;-82
2023/04/01 05:26:43;;;;;;;25.43;10.63;;;9.80;99.90;;;;;;5075543;28;20244;-84
2023/04/01 05:29:11;;;;;;;26.37;11.83;;;9.80;99.90;;;;;;5075146;28;20288;-82
2023/04/01 05:31:38;;;;;;;26.07;13.27;;;9.80;99.90;;;;;;5078361;28;20275;-84
2023/04/01 05:34:06;;;;;;;26.87;12.30;;;9.80;99.90;;;;;;5096048;28;20201;-83
2023/04/01 05:36:34;;;;;;;26.07;12.80;;;9.80;99.90;;;;;;5095369;28;20201;-83
2023/04/01 05:39:01;;;;;;;31.70;13.47;;;9.80;99.90;;;;;;5094147;28;20567;-84
2023/04/01 05:41:28;;;;;;;27.53;12.03;;;9.80;99.90;;;;;;5075174;28;20269;-85
2023/04/01 05:43:55;;;;;;;32.57;13.20;;;9.80;99.90;;;;;;5074897;28;20217;-83
2023/04/01 05:46:22;;;;;;;30.23;13.37;;;9.80;99.90;;;;;;5075176;28;20285;-84
2023/04/01 05:48:49;;;;;;;30.43;13.53;;;9.80;99.90;;;;;;5076181;28;20670;-85
2023/04/01 05:51:17;;;;;;;32.83;13.57;;;9.80;99.90;;;;;;5075145;28;20193;-83
2023/04/01 05:53:44;;;;;;;26.63;12.67;;;9.80;99.90;;;;;;5076531;28;20203;-84
2023/04/01 05:56:11;;;;;;;30.83;12.90;;;9.80;99.90;;;;;;5075496;28;20311;-85
2023/04/01 05:58:38;;;;;;;28.00;12.70;;;9.80;99.90;;;;;;5075331;28;20489;-84
2023/04/01 06:01:07;;;;;;;35.73;13.47;;;9.80;99.90;;;;;;5075754;28;20225;-85
2023/04/01 06:03:36;;;;;;;28.10;13.67;;;9.80;99.90;;;;;;5075158;28;20547;-84
2023/04/01 06:06:04;;;;;;;34.30;13.90;;;9.80;99.90;;;;;;5075286;28;20211;-83
2023/04/01 06:08:33;;;;;;;33.57;15.97;;;9.80;99.90;;;;;;5055327;28;20755;-86
2023/04/01 06:11:14;;;;;;;36.43;14.50;;;9.80;99.90;;;;;;5055026;28;20221;-83
2023/04/01 06:13:58;;;;;;;37.13;15.47;;;9.70;99.90;;;;;;5055699;28;20248;-84
2023/04/01 06:16:36;;;;;;;35.63;16.23;;;9.80;99.90;;;;;;5067297;28;20285;-85
2023/04/01 06:19:17;;;;;;;30.97;14.63;;;9.70;99.90;;;;;;5075103;28;20280;-83
2023/04/01 06:22:38;;;;;;;33.07;14.70;;;9.70;99.90;;;;;;5075056;28;20212;-83
2023/04/01 06:25:36;;;;;;;30.73;14.33;;;9.80;99.90;;;;;;5050805;28;20617;-83
2023/04/01 06:28:20;;;;;;;32.97;14.03;;;9.70;99.90;;;;;;5039238;28;20222;-85
2023/04/01 06:30:57;;;;;;;38.20;14.70;;;9.70;99.90;;;;;;5038208;28;20198;-84
2023/04/01 06:33:42;;;;;;;35.73;15.10;;;9.70;99.90;;;;;;5066391;28;20668;-85
2023/04/01 06:36:41;;;;;;;34.97;13.90;;;9.70;99.90;;;;;;5065758;28;20209;-85
2023/04/01 06:39:28;;;;;;;36.97;15.00;;;9.70;99.90;;;;;;5062788;28;20229;-86
2023/04/01 06:42:20;;;;;;;32.00;13.93;;;9.80;99.90;;;;;;5069333;28;20193;-85
2023/04/01 06:44:58;;;;;;;34.43;14.33;;;9.80;99.90;;;;;;5073752;28;20285;-84
2023/04/01 06:47:37;;;;;;;34.97;14.60;;;9.80;99.90;;;;;;5058856;28;20197;-85
2023/04/01 06:50:13;;;;;;;30.37;13.67;;;9.80;99.90;;;;;;5053615;28;20992;-84
2023/04/01 06:52:48;;;;;;;32.17;13.43;;;9.90;99.90;;;;;;5053902;28;20197;-84
2023/04/01 06:55:26;;;;;;;34.90;13.13;;;9.80;99.90;;;;;;5053459;28;20194;-84
2023/04/01 06:57:59;;;;;;;23.27;11.60;;;9.80;99.90;;;;;;5053552;28;20208;-84
2023/04/01 07:00:31;;;;;;;29.40;13.07;;;9.90;99.90;;;;;;5054422;28;20575;-85
2023/04/01 07:03:07;;;;;;;31.57;13.93;;;9.90;99.90;;;;;;5054609;28;20190;-83
2023/04/01 07:05:35;;;;;;;30.50;13.23;;;9.90;99.90;;;;;;5054470;28;20197;-83
2023/04/01 07:08:05;;;;;;;32.37;15.67;;;9.90;99.90;;;;;;5089794;28;20242;-83
2023/04/01 07:10:40;;;;;;;32.43;14.10;;;9.90;99.90;;;;;;5094576;28;20197;-84
2023/04/01 07:13:14;;;;;;;33.73;13.47;;;10.00;99.90;;;;;;5074299;28;20283;-84
2023/04/01 07:15:45;;;;;;;30.03;14.13;;;9.90;99.90;;;;;;5089391;28;20227;-83
2023/04/01 07:18:17;;;;;;;34.17;13.87;;;10.00;99.90;;;;;;5094057;28;20197;-85
2023/04/01 07:20:44;;;;;;;28.77;12.10;;;10.00;99.90;;;;;;5083393;28;20498;-84
2023/04/01 07:23:21;;;;;;;27.40;12.63;;;10.00;99.90;;;;;;5073989;28;20197;-83
2023/04/01 07:25:52;;;;;;;26.60;11.13;;;10.10;99.90;;;;;;5074391;28;20288;-88
2023/04/01 07:28:22;;;;;;;23.13;11.03;;;10.10;99.90;;;;;;5073507;28;20482;-83
2023/04/01 07:31:02;;;;;;;21.77;10.90;;;10.20;99.90;;;;;;5072107;28;20211;-86
2023/04/01 07:33:40;;;;;;;21.20;10.13;;;10.10;99.90;;;;;;5072330;28;20276;-83
2023/04/01 07:36:14;;;;;;;16.03;9.53;;;10.20;99.90;;;;;;5072202;28;20199;-85
2023/04/01 07:38:49;;;;;;;26.87;11.20;;;10.20;99.90;;;;;;5073273;28;20285;-85
2023/04/01 07:41:23;;;;;;;24.40;12.13;;;10.20;99.90;;;;;;5074199;28;20403;-85
2023/04/01 07:44:04;;;;;;;31.10;13.30;;;10.20;99.90;;;;;;5092775;28;20208;-84
2023/04/01 07:47:01;;;;;;;22.37;12.30;;;10.20;99.90;;;;;;5092920;28;20196;-84
2023/04/01 07:49:34;;;;;;;27.43;12.33;;;10.30;99.90;;;;;;5093756;28;20208;-85
2023/04/01 07:52:07;;;;;;;25.13;12.13;;;10.20;99.90;;;;;;5088415;28;20212;-84
2023/04/01 07:54:42;;;;;;;22.60;11.23;;;10.20;99.90;;;;;;5094004;28;20195;-85
2023/04/01 07:57:16;;;;;;;18.87;10.17;;;10.30;99.90;;;;;;5073899;28;20217;-87
2023/04/01 07:59:57;;;;;;;23.80;9.63;;;10.40;99.90;;;;;;5073972;28;20197;-85
2023/04/01 08:02:37;;;;;;;19.13;9.57;;;10.30;99.90;;;;;;5073953;28;20264;-86
2023/04/01 08:05:15;;;;;;;15.67;9.00;;;10.30;99.90;;;;;;5073756;28;20227;-85
2023/04/01 08:07:49;;;;;;;12.87;8.07;;;10.40;99.90;;;;;;5091286;28;20240;-84
2023/04/01 08:10:22;;;;;;;13.70;7.17;;;10.40;99.90;;;;;;5093756;28;20200;-84
2023/04/01 08:13:00;;;;;;;11.50;6.57;;;10.40;99.90;;;;;;5093268;28;20199;-85
2023/04/01 08:15:35;;;;;;;12.30;7.00;;;10.40;99.90;;;;;;5080365;28;20239;-85
2023/04/01 08:18:13;;;;;;;12.53;6.00;;;10.40;99.90;;;;;;5086328;28;20780;-85
2023/04/01 08:20:45;;;;;;;11.00;5.77;;;10.40;99.90;;;;;;5093116;28;20204;-84
2023/04/01 08:23:16;;;;;;;11.80;5.80;;;10.40;99.90;;;;;;5093219;28;20200;-85
2023/04/01 08:25:49;;;;;;;9.83;5.03;;;10.50;99.90;;;;;;5092828;28;20303;-84
2023/04/01 08:28:22;;;;;;;7.83;5.13;;;10.50;99.90;;;;;;5093872;28;20228;-82
2023/04/01 08:30:56;;;;;;;5.83;3.67;;;10.60;99.90;;;;;;5092893;28;20250;-84
2023/04/01 08:33:26;;;;;;;9.30;4.37;;;10.60;99.90;;;;;;5085317;28;20304;-84
2023/04/01 08:35:57;;;;;;;9.90;4.57;;;10.60;99.90;;;;;;5072867;28;20498;-87
2023/04/01 08:38:30;;;;;;;7.13;4.27;;;10.60;99.90;;;;;;5072906;28;20232;-85
2023/04/01 08:41:07;;;;;;;8.13;4.80;;;10.50;99.90;;;;;;5072775;28;20250;-85
2023/04/01 08:43:56;;;;;;;8.43;5.70;;;10.60;99.90;;;;;;5076861;28;20280;-82
2023/04/01 08:46:48;;;;;;;10.43;6.87;;;10.70;99.90;;;;;;5076851;28;20558;-84
2023/04/01 08:49:34;;;;;;;11.43;7.17;;;10.70;99.90;;;;;;5073466;28;20528;-85
2023/04/01 08:52:28;;;;;;;12.83;8.30;;;10.60;99.90;;;;;;5076942;28;20212;-84
2023/04/01 08:55:21;;;;;;;13.30;7.57;;;10.70;99.90;;;;;;5076915;28;20185;-84
2023/04/01 08:58:11;;;;;;;12.00;7.30;;;10.70;99.90;;;;;;5076739;28;20220;-83
2023/04/01 09:00:44;;;;;;;15.43;8.30;;;10.70;99.90;;;;;;5073754;28;20236;-84
2023/04/01 09:03:42;;;;;;;14.90;7.97;;;10.80;99.90;;;;;;5077040;28;20219;-85
2023/04/01 09:06:30;;;;;;;12.50;8.23;;;10.70;99.90;;;;;;5076524;28;20205;-84
2023/04/01 09:09:22;;;;;;;16.10;8.20;;;10.80;99.90;;;;;;5076581;28;20284;-82
2023/04/01 09:12:27;;;;;;;14.30;8.23;;;10.80;99.90;;;;;;5076850;28;20590;-84
2023/04/01 09:15:30;;;;;;;13.87;7.80;;;10.90;99.90;;;;;;5061375;28;20454;-85
2023/04/01 09:18:39;;;;;;;12.03;7.37;;;11.00;99.90;;;;;;5076589;28;20196;-86
2023/04/01 09:21:28;;;;;;;14.70;8.03;;;11.00;99.90;;;;;;5076597;28;20442;-86
2023/04/01 09:24:13;;;;;;;14.83;8.43;;;11.00;99.90;;;;;;5091483;28;20204;-84
2023/04/01 09:26:55;;;;;;;13.47;7.60;;;11.00;99.90;;;;;;5096462;28;20184;-82
2023/04/01 09:29:41;;;;;;;12.83;7.30;;;11.00;99.90;;;;;;5087315;28;20201;-81
2023/04/01 09:32:43;;;;;;;14.47;7.63;;;11.00;99.90;;;;;;5075716;28;20289;-84
2023/04/01 09:35:24;;;;;;;16.20;8.50;;;11.10;99.90;;;;;;5075529;28;20284;-82
2023/04/01 09:38:01;;;;;;;13.47;7.50;;;11.10;99.90;;;;;;5076416;28;20221;-84
2023/04/01 09:40:43;;;;;;;12.87;7.87;;;11.10;99.90;;;;;;5075880;28;20718;-85
2023/04/01 09:43:23;;;;;;;9.80;7.37;;;11.10;99.90;;;;;;5095053;28;20205;-83
2023/04/01 09:46:13;;;;;;;11.40;6.63;;;11.10;99.90;;;;;;5096363;28;20231;-84
2023/04/01 09:49:12;;;;;;;11.13;6.83;;;11.10;99.90;;;;;;5089155;28;20209;-85
2023/04/01 09:51:51;;;;;;;10.40;6.37;;;11.20;99.90;;;;;;5053876;28;20211;-84
2023/04/01 09:54:32;;;;;;;8.47;5.80;;;11.30;99.90;;;;;;5075227;28;20690;-82
2023/04/01 09:57:42;;;;;;;9.67;6.30;;;11.30;99.90;;;;;;5073858;28;20228;-81
2023/04/01 10:00:40;;;;;;;8.77;5.97;;;11.20;99.90;;;;;;5074958;28;20208;-83
2023/04/01 10:03:49;;;;;;;9.00;6.37;;;11.30;99.90;;;;;;5074902;28;20190;-85
2023/04/01 10:06:50;;;;;;;13.17;7.37;;;11.30;99.90;;;;;;5074576;28;20224;-82
2023/04/01 10:09:53;;;;;;;9.77;6.87;;;11.40;99.90;;;;;;5068782;28;20363;-83
2023/04/01 10:12:50;;;;;;;12.57;7.83;;;11.40;99.90;;;;;;5074292;28;20232;-83
2023/04/01 10:15:59;;;;;;;11.30;8.37;;;11.60;99.90;;;;;;5073970;28;20241;-83
2023/04/01 10:19:05;;;;;;;13.40;8.50;;;11.70;99.90;;;;;;5068059;28;20240;-84
2023/04/01 10:22:01;;;;;;;15.80;9.77;;;11.80;99.90;;;;;;5074861;28;20197;-83
2023/04/01 10:25:06;;;;;;;13.07;8.83;;;11.90;99.90;;;;;;5045407;28;20236;-82
2023/04/01 10:28:01;;;;;;;12.40;8.60;;;11.90;99.90;;;;;;5087902;28;22023;-84
2023/04/01 10:31:14;;;;;;;12.40;9.00;;;12.00;99.90;;;;;;5093827;28;20205;-82
2023/04/01 10:34:11;;;;;;;11.93;9.17;;;12.00;99.90;;;;;;5064227;28;20208;-82
2023/04/01 10:36:51;;;;;;;15.53;9.00;;;12.00;99.90;;;;;;5074325;28;20225;-84
2023/04/01 10:40:14;;;;;;;17.30;9.43;;;12.00;99.90;;;;;;5073625;28;20523;-83
2023/04/01 10:43:08;;;;;;;13.30;8.57;;;12.10;99.90;;;;;;4965327;28;20651;-84
2023/04/01 10:46:07;;;;;;;13.07;8.63;;;12.00;99.90;;;;;;4988654;28;20231;-84
2023/04/01 10:49:19;;;;;;;15.77;10.07;;;11.90;99.90;;;;;;5074490;28;20550;-85
2023/04/01 10:52:21;;;;;;;14.17;9.57;;;11.90;99.90;;;;;;5074760;28;20202;-83
2023/04/01 10:54:52;;;;;;;17.07;8.60;;;11.90;99.90;;;;;;5043656;28;20492;-84
2023/04/01 10:57:54;;;;;;;12.67;8.27;;;11.90;99.90;;;;;;5074193;28;20274;-82
2023/04/01 11:01:01;;;;;;;12.30;7.10;;;11.90;99.90;;;;;;5073396;28;20633;-82
2023/04/01 11:04:33;;;;;;;11.63;7.20;;;12.00;99.90;;;;;;5074556;28;20224;-86
2023/04/01 11:07:33;;;;;;;10.47;7.30;;;12.10;99.90;;;;;;4991767;28;20614;-82
2023/04/01 11:10:39;;;;;;;11.90;7.43;;;12.20;99.90;;;;;;4989711;28;20295;-89
2023/04/01 11:13:47;;;;;;;10.73;7.73;;;12.30;99.90;;;;;;5032184;28;20201;-84
2023/04/01 11:16:48;;;;;;;10.07;7.57;;;12.50;99.90;;;;;;5058122;28;20193;-80
2023/04/01 11:19:49;;;;;;;10.73;6.83;;;12.50;99.90;;;;;;5061364;28;20209;-82
2023/04/01 11:22:34;;;;;;;8.93;6.70;;;12.70;99.90;;;;;;5073280;28;20189;-84
2023/04/01 11:25:27;;;;;;;7.73;6.30;;;12.70;99.90;;;;;;5073228;28;20225;-83
2023/04/01 11:28:21;;;;;;;7.80;5.77;;;12.60;99.90;;;;;;5073251;28;20281;-81
2023/04/01 11:31:14;;;;;;;10.30;6.20;;;12.80;99.90;;;;;;5073168;28;20220;-82
2023/04/01 11:33:49;;;;;;;7.50;6.20;;;12.90;99.90;;;;;;5069470;28;20280;-83
2023/04/01 11:36:38;;;;;;;7.20;5.50;;;13.00;99.90;;;;;;5073105;28;20250;-83
2023/04/01 11:39:21;;;;;;;7.70;5.23;;;13.00;99.90;;;;;;5074228;28;20197;-87
2023/04/01 11:41:55;;;;;;;10.47;6.33;;;13.00;99.90;;;;;;5075434;28;20197;-87
2023/04/01 11:44:28;;;;;;;9.87;5.80;;;13.00;99.90;;;;;;5074593;28;20604;-84
2023/04/01 11:47:15;;;;;;;12.13;7.87;;;12.90;99.90;;;;;;5074877;28;20235;-87
2023/04/01 11:49:54;;;;;;;12.90;8.03;;;12.90;99.90;;;;;;5073556;28;20186;-79
2023/04/01 11:52:33;;;;;;;27.67;9.37;;;12.80;99.90;;;;;;5074098;28;20551;-85
2023/04/01 11:55:15;;;;;;;13.93;7.17;;;12.90;99.90;;;;;;5073588;28;20285;-83
2023/04/01 11:57:54;;;;;;;10.63;7.57;;;12.90;99.90;;;;;;5074454;28;20728;-86
2023/04/01 12:00:46;;;;;;;13.90;7.53;;;12.90;99.90;;;;;;5074176;28;20271;-85
2023/04/01 12:03:33;;;;;;;15.77;7.67;;;13.10;99.90;;;;;;5072886;28;20197;-86
2023/04/01 12:06:06;;;;;;;10.17;5.73;;;13.10;99.90;;;;;;5074035;28;20220;-84
2023/04/01 12:08:44;;;;;;;9.97;5.83;;;13.10;99.90;;;;;;5053303;28;20284;-83
2023/04/01 12:11:23;;;;;;;9.27;5.83;;;13.20;99.90;;;;;;5053193;28;20221;-86
2023/04/01 12:13:56;;;;;;;6.73;5.40;;;13.20;99.90;;;;;;5053333;28;20240;-83
2023/04/01 12:16:38;;;;;;;9.63;6.10;;;13.30;99.90;;;;;;5054573;28;20190;-84
2023/04/01 12:19:15;;;;;;;9.70;5.17;;;13.20;99.90;;;;;;5057916;28;20224;-84
2023/04/01 12:21:53;;;;;;;6.37;5.00;;;13.30;99.90;;;;;;5057289;28;20186;-84
2023/04/01 12:24:47;;;;;;;7.97;4.67;;;13.30;99.90;;;;;;5058416;28;20194;-86
2023/04/01 12:27:29;;;;;;;8.50;4.47;;;13.50;99.90;;;;;;5057997;28;20557;-86
2023/04/01 12:30:13;;;;;;;7.30;4.73;;;13.50;99.90;;;;;;5058346;28;20259;-86
2023/04/01 12:32:45;;;;;;;6.60;4.27;;;13.50;99.90;;;;;;5057891;28;20233;-86
2023/04/01 12:35:22;;;;;;;8.60;4.70;;;13.60;99.90;;;;;;5057496;28;20200;-84
2023/04/01 12:38:04;;;;;;;7.17;5.03;;;13.60;99.90;;;;;;5057579;28;20562;-85
2023/04/01 12:40:50;;;;;;;9.27;5.57;;;13.70;99.90;;;;;;5057819;28;20214;-86
2023/04/01 12:43:43;;;;;;;8.30;5.17;;;13.90;99.90;;;;;;5058456;28;20217;-82
2023/04/01 12:46:17;;;;;;;10.20;4.97;;;13.90;99.90;;;;;;5075409;28;20209;-81
2023/04/01 12:49:16;;;;;;;9.53;5.63;;;13.90;99.90;;;;;;5076539;28;20238;-82
2023/04/01 12:52:04;;;;;;;8.80;5.10;;;13.70;99.90;;;;;;5019554;28;20213;-84
2023/04/01 12:55:04;;;;;;;10.20;5.63;;;13.50;99.90;;;;;;5057080;28;20666;-84
2023/04/01 12:58:03;;;;;;;8.83;5.37;;;13.50;99.90;;;;;;5056656;28;20221;-79
2023/04/01 13:00:46;;;;;;;11.33;5.60;;;13.50;99.90;;;;;;5024801;28;20591;-82
2023/04/01 13:03:32;;;;;;;10.77;4.63;;;13.50;99.90;;;;;;5059963;28;20209;-87
2023/04/01 13:06:33;;;;;;;6.83;4.70;;;13.40;99.90;;;;;;5062805;28;20570;-88
2023/04/01 13:09:16;;;;;;;11.10;4.97;;;13.20;99.90;;;;;;5058260;28;20240;-91
2023/04/01 13:11:58;;;;;;;11.60;5.30;;;13.10;99.90;;;;;;5059397;28;20205;-84
2023/04/01 13:14:52;;;;;;;11.77;5.50;;;13.00;99.90;;;;;;5056614;28;20301;-84
2023/04/01 13:17:23;;;;;;;9.17;5.30;;;12.90;99.90;;;;;;5046273;28;20206;-88
2023/04/01 13:19:55;;;;;;;8.60;5.47;;;12.90;99.90;;;;;;5056816;28;20202;-84
2023/04/01 13:22:31;;;;;;;8.27;5.80;;;12.90;99.90;;;;;;5055506;28;20210;-87
2023/04/01 13:25:05;;;;;;;7.83;5.47;;;12.90;99.90;;;;;;5055960;28;20228;-87
2023/04/01 13:27:40;;;;;;;10.47;6.13;;;12.80;99.90;;;;;;5055405;28;20233;-85